Terminal Aerodrome Forecast
Issued by NWS St Louis, MO

Home | Current Version | Previous Version | Text Only | Print | Product List | Glossary On
Versions: 1 2 3 4 5 6 7 8 9 10 11 12 13 14 15 16 17 18 19 20 21 22 23 24 25 26 27 28 29
000
FTUS43 KLSX 211100
TAFCOU
TAF
KCOU 211121Z 2112/2212 09007KT P6SM SKC
     FM211400 12011KT P6SM BKN250
     FM211800 13012KT P6SM OVC035
     FM212100 14010KT P6SM -SHRA OVC025
     FM220000 15011KT P6SM -SHRA OVC015
     FM220600 18011KT P6SM SCT015 OVC025=

USA.gov is the U.S. government's official web portal to all federal, state and local government web resources and services.